Ashton, ID (83420)

9:44 PM MST on December 19, 2014 (GMT -0700)
Ashton Community Pharmacy-23 S 8th St | Change Station
CLOSE
Current Station
Personal Weather Station
Location: Ashton, ID
Elevation: 5260 ft
Nearby Weather Stations
Active Advisory: Winter Storm Watch Active Notice: Record Report, Local Storm Report

Elev 5260 ft 44.07 °N, 111.45 °W | Updated 12 seconds ago

Overcast
Overcast
31.8 °F
Feels Like 28 °F
N
4.0
Wind Variable Wind from SE
Gusts 6.0 mph

Today
High -- | Low -- °F
--% Chance of Precip.
Yesterday
High -- | Low -- °F
Precip. -- in
7:56 AM 4:49 PM
Waning Crescent, 4% visible
Pressure 30.06 in
Visibility 10.0 miles
Clouds Few 1200 ft
Mostly Cloudy 2800 ft
Overcast 3300 ft
Windchill 28 °F
Dew Point 30 °F
Humidity 91%
Rainfall 0.07 in
Snow Depth Not available.
UV 0 out of 12
Pollen .10 out of 12
Air Quality Not available.
Flu Activity Not available.
SPECI KDIJ 200410Z AUTO 17007KT 10SM FEW012 BKN028 OVC033 M01/M02 A3006 RMK AO2

More Conditions Fewer Conditions

Pressure 30.06 in
Visibility 10.0 miles
Clouds Few 1200 ft
Mostly Cloudy 2800 ft
Overcast 3300 ft
Windchill 28 °F
Dew Point 30 °F
Humidity 91%
Rainfall 0.07 in
Snow Depth Not available.
UV 0 out of 12
Pollen .10 out of 12
Air Quality Not available.
Flu Activity Not available.
SPECI KDIJ 200410Z AUTO 17007KT 10SM FEW012 BKN028 OVC033 M01/M02 A3006 RMK AO2

More Conditions Fewer Conditions

10-Day Weather Forecast

Almanac

Astronomy

Dec. 19, 2014 Rise Set
Actual Time
Civil Twilight
Nautical Twilight
Astronomical Twilight
Moon
Length of Visible Light
Length of Day
Tomorrow will be .
, % of the Moon is Illuminated

Today's Extremes

State Highs State Lows

Community

WunderPhotos

Upload Photos

1,779,130 photos uploaded!

WunderBlogs® & News

Nearby

Air Quality

  Air Quality AQ Index Pollutant
Not available.

Snow Depth

Station Depth Elevation

Earthquake Activity

City Distance Mag. Time & Date
Minimum magnitude displayed is 2.5.

Coastal Water Temperatures

Place Temperature

Nearby Weather Stations